Time;durP1;ratioP1;P1;durP2;ratioP2;P2;SDS_P1;SDS_P2;PMS_P1;PMS_P2;Temp;Humidity;BMP_temperature;BMP_pressure;BME280_temperature;BME280_humidity;BME280_pressure;Samples;Min_cycle;Max_cycle;Signal;HPM_P1;HPM_P2
2022/05/29 00:00:13;;;;;;;104.53;22.30;;;11.20;1.00;;;;;;5012361;28;20775;-53
2022/05/29 00:02:40;;;;;;;61.33;14.13;;;;;;;;;;5009354;28;20221;-53
2022/05/29 00:05:07;;;;;;;89.07;19.63;;;11.20;1.00;;;;;;5003744;28;20192;-54
2022/05/29 00:07:33;;;;;;;56.30;12.57;;;;;;;;;;5006539;28;20236;-53
2022/05/29 00:09:58;;;;;;;105.93;22.17;;;11.50;1.00;;;;;;5008293;28;20236;-53
2022/05/29 00:12:24;;;;;;;112.07;24.00;;;11.10;1.00;;;;;;5006231;28;20270;-53
2022/05/29 00:14:50;;;;;;;65.70;14.23;;;;;;;;;;5009328;28;20224;-52
2022/05/29 00:17:17;;;;;;;104.27;22.00;;;11.20;1.00;;;;;;5008113;28;20240;-53
2022/05/29 00:19:43;;;;;;;96.30;21.70;;;;;;;;;;5001352;28;20232;-53
2022/05/29 00:22:16;;;;;;;66.13;14.23;;;11.20;1.00;;;;;;5011264;28;20207;-53
2022/05/29 00:24:44;;;;;;;41.60;9.93;;;11.10;1.00;;;;;;5007669;28;20219;-53
2022/05/29 00:27:11;;;;;;;99.00;20.97;;;;;;;;;;5004146;28;20216;-53
2022/05/29 00:29:37;;;;;;;120.17;25.77;;;11.40;1.00;;;;;;5002711;28;20185;-53
2022/05/29 00:32:04;;;;;;;60.67;13.47;;;11.10;1.00;;;;;;5007590;28;20696;-53
2022/05/29 00:34:31;;;;;;;79.87;17.00;;;;;;;;;;5007032;28;20221;-53
2022/05/29 00:36:58;;;;;;;97.63;20.40;;;;;;;;;;5008284;28;20558;-53
2022/05/29 00:39:24;;;;;;;45.30;11.00;;;11.00;1.00;;;;;;5010495;28;20222;-53
2022/05/29 00:41:50;;;;;;;134.27;27.67;;;11.20;1.00;;;;;;5004619;28;20686;-53
2022/05/29 00:44:28;;;;;;;122.10;25.87;;;11.20;7.10;;;;;;5002959;28;20256;-53
2022/05/29 00:46:53;;;;;;;128.87;26.87;;;;;;;;;;5002275;28;20307;-53
2022/05/29 00:49:25;;;;;;;72.23;15.80;;;11.10;1.00;;;;;;5004108;28;20211;-53
2022/05/29 00:52:03;;;;;;;112.17;23.27;;;11.30;1.00;;;;;;5004374;28;20562;-53
2022/05/29 00:54:34;;;;;;;70.27;15.33;;;11.10;1.00;;;;;;5002899;28;20700;-53
2022/05/29 00:57:01;;;;;;;84.07;17.27;;;;;;;;;;5004293;28;20278;-52
2022/05/29 00:59:31;;;;;;;47.87;11.23;;;11.10;1.00;;;;;;5004022;28;20703;-53
2022/05/29 01:01:57;;;;;;;140.17;29.20;;;;;;;;;;5006528;28;20217;-53
2022/05/29 01:04:23;;;;;;;101.57;21.60;;;;;;;;;;4999175;28;20213;-53
2022/05/29 01:06:49;;;;;;;131.70;26.30;;;;;;;;;;5005898;28;20228;-53
2022/05/29 01:09:16;;;;;;;80.17;17.03;;;9.30;1.00;;;;;;5008477;28;20307;-53
2022/05/29 01:12:01;;;;;;;56.07;12.73;;;10.90;1.00;;;;;;5008720;28;20216;-53
2022/05/29 01:14:36;;;;;;;67.13;14.50;;;11.00;1.00;;;;;;5004802;28;20272;-53
2022/05/29 01:17:07;;;;;;;71.17;14.97;;;11.10;1.00;;;;;;5014761;28;20219;-53
2022/05/29 01:19:51;;;;;;;100.03;20.70;;;11.20;1.00;;;;;;5001806;28;20750;-53
2022/05/29 01:22:44;;;;;;;81.83;17.13;;;11.10;1.00;;;;;;5002870;28;20246;-53
2022/05/29 01:25:28;;;;;;;68.30;14.47;;;11.00;1.00;;;;;;5004298;28;20624;-53
2022/05/29 01:28:10;;;;;;;82.80;17.43;;;11.30;1.00;;;;;;5010359;28;20220;-53
2022/05/29 01:31:02;;;;;;;101.37;20.73;;;11.10;1.00;;;;;;5001830;28;20216;-53
2022/05/29 01:34:06;;;;;;;127.10;25.53;;;11.10;1.00;;;;;;4987302;28;20371;-53
2022/05/29 01:36:32;;;;;;;69.63;15.17;;;;;;;;;;4989456;28;20208;-53
2022/05/29 01:39:10;;;;;;;96.13;19.57;;;11.00;1.00;;;;;;4991973;28;20263;-53
2022/05/29 01:41:42;;;;;;;107.10;21.93;;;11.10;1.00;;;;;;4993437;28;22025;-54
2022/05/29 01:44:38;;;;;;;88.40;18.80;;;11.00;1.00;;;;;;4997794;28;20188;-53
2022/05/29 01:47:38;;;;;;;109.37;23.10;;;11.00;1.00;;;;;;5002963;28;20217;-53
2022/05/29 01:50:17;;;;;;;50.47;10.80;;;11.70;1.00;;;;;;4998831;28;20224;-53
2022/05/29 01:53:08;;;;;;;103.53;21.37;;;11.30;1.00;;;;;;5007064;28;20226;-53
2022/05/29 01:55:41;;;;;;;94.73;20.23;;;11.10;1.00;;;;;;5000883;28;20213;-53
2022/05/29 01:58:12;;;;;;;85.17;17.77;;;11.00;1.00;;;;;;5016063;28;20204;-53
2022/05/29 02:00:38;;;;;;;92.60;19.43;;;;;;;;;;5011811;28;20229;-53
2022/05/29 02:03:11;;;;;;;79.33;16.67;;;11.00;1.00;;;;;;5007259;28;20740;-54
2022/05/29 02:05:52;;;;;;;92.37;19.90;;;11.00;1.00;;;;;;5000740;28;20181;-53
2022/05/29 02:08:23;;;;;;;87.60;18.17;;;11.40;2.70;;;;;;5007030;28;20204;-53
2022/05/29 02:11:06;;;;;;;85.53;18.30;;;11.00;14.20;;;;;;5004454;28;20712;-52
2022/05/29 02:13:41;;;;;;;139.57;28.20;;;11.00;1.00;;;;;;4999355;28;20212;-54
2022/05/29 02:16:13;;;;;;;90.50;19.07;;;11.00;1.00;;;;;;5007141;28;20203;-53
2022/05/29 02:18:39;;;;;;;97.13;20.00;;;;;;;;;;5002059;28;20712;-53
2022/05/29 02:21:09;;;;;;;88.37;18.37;;;11.00;1.00;;;;;;5003854;28;20215;-53
2022/05/29 02:23:45;;;;;;;105.93;22.90;;;10.80;2.20;;;;;;5004227;28;20284;-53
2022/05/29 02:26:17;;;;;;;65.53;13.73;;;11.00;27.60;;;;;;5002589;28;20187;-53
2022/05/29 02:28:48;;;;;;;86.90;18.53;;;10.80;2.70;;;;;;5000910;28;20220;-54
2022/05/29 02:31:47;;;;;;;122.80;24.93;;;10.70;2.80;;;;;;5002060;28;20690;-53
2022/05/29 02:34:28;;;;;;;105.53;22.23;;;10.90;20.80;;;;;;4996806;28;20221;-53
2022/05/29 02:36:54;;;;;;;88.77;17.90;;;;;;;;;;5003586;28;20278;-53
2022/05/29 02:39:54;;;;;;;69.67;14.93;;;10.40;57.50;;;;;;5006041;28;20720;-53
2022/05/29 02:42:41;;;;;;;78.50;16.53;;;10.70;25.90;;;;;;5004244;28;20215;-53
2022/05/29 02:45:30;;;;;;;103.10;21.13;;;10.60;31.60;;;;;;5000083;28;20270;-53
2022/05/29 02:48:24;;;;;;;108.23;21.67;;;10.80;64.10;;;;;;5001754;28;20220;-53
2022/05/29 02:51:14;;;;;;;105.30;21.33;;;10.60;36.80;;;;;;5007106;28;20220;-53
2022/05/29 02:53:44;;;;;;;134.27;27.27;;;10.60;36.90;;;;;;5001451;28;20192;-53
2022/05/29 02:56:11;;;;;;;53.87;11.67;;;;;;;;;;5003519;28;20769;-53
2022/05/29 02:58:39;;;;;;;103.90;21.53;;;10.80;49.20;;;;;;4998320;28;20307;-53
2022/05/29 03:01:05;;;;;;;52.57;11.33;;;;;;;;;;5007956;28;20216;-52
2022/05/29 03:03:54;;;;;;;115.47;22.77;;;10.70;76.60;;;;;;5006132;28;20216;-53
2022/05/29 03:06:42;;;;;;;118.57;24.20;;;10.70;28.00;;;;;;4973207;28;20601;-53
2022/05/29 03:09:13;;;;;;;63.67;13.43;;;10.90;67.60;;;;;;4997083;28;20229;-53
2022/05/29 03:11:44;;;;;;;94.90;20.00;;;10.70;26.20;;;;;;5004639;28;20250;-52
2022/05/29 03:14:25;;;;;;;49.60;10.87;;;10.50;63.30;;;;;;5003233;28;20177;-53
2022/05/29 03:17:19;;;;;;;158.03;31.80;;;10.50;70.70;;;;;;5005336;28;20339;-52
2022/05/29 03:19:51;;;;;;;99.37;19.77;;;10.60;35.80;;;;;;4995381;28;20231;-53
2022/05/29 03:22:44;;;;;;;67.63;15.07;;;10.60;30.00;;;;;;5002318;28;20260;-53
2022/05/29 03:25:23;;;;;;;103.90;20.87;;;10.40;36.70;;;;;;5003254;28;20225;-53
2022/05/29 03:27:51;;;;;;;115.10;24.20;;;10.40;62.90;;;;;;5002334;28;20216;-53
2022/05/29 03:30:31;;;;;;;108.93;24.70;;;10.50;63.80;;;;;;5002881;28;20326;-52
2022/05/29 03:32:59;;;;;;;166.47;35.37;;;10.40;34.30;;;;;;4996788;28;20381;-53
2022/05/29 03:35:30;;;;;;;144.20;31.07;;;10.50;41.20;;;;;;4998756;28;20189;-53
2022/05/29 03:37:57;;;;;;;147.63;30.97;;;10.30;64.20;;;;;;4998458;28;20472;-53
2022/05/29 03:40:27;;;;;;;112.40;23.77;;;10.30;52.00;;;;;;5004445;28;20208;-53
2022/05/29 03:42:53;;;;;;;103.70;21.70;;;;;;;;;;4994731;28;20228;-53
2022/05/29 03:45:19;;;;;;;139.27;29.17;;;10.50;43.20;;;;;;5009829;28;20212;-52
2022/05/29 03:47:45;;;;;;;126.27;26.17;;;;;;;;;;4995365;28;20335;-53
2022/05/29 03:50:14;;;;;;;92.63;19.60;;;10.60;25.70;;;;;;5001477;28;20181;-53
2022/05/29 03:52:40;;;;;;;115.47;23.83;;;10.70;43.30;;;;;;5004470;28;20232;-52
2022/05/29 03:55:07;;;;;;;145.63;29.90;;;;;;;;;;5005114;28;20216;-53
2022/05/29 03:57:33;;;;;;;135.17;28.10;;;10.60;9.60;;;;;;5000533;28;20226;-53
2022/05/29 03:59:58;;;;;;;111.00;23.27;;;10.50;38.10;;;;;;4994061;28;20225;-52
2022/05/29 04:02:24;;;;;;;122.73;25.40;;;10.90;32.30;;;;;;5000706;28;20271;-53
2022/05/29 04:04:50;;;;;;;100.07;21.20;;;;;;;;;;5000926;28;20466;-53
2022/05/29 04:07:16;;;;;;;131.57;27.10;;;;;;;;;;5000585;28;20320;-53
2022/05/29 04:12:27;;;;;;;77.10;16.57;;;;;;;;;;4998947;28;20259;-53
2022/05/29 04:14:53;;;;;;;134.30;27.17;;;;;;;;;;4994336;28;20299;-53
2022/05/29 04:17:20;;;;;;;85.80;18.63;;;10.80;1.00;;;;;;4997203;28;20941;-53
2022/05/29 04:19:46;;;;;;;86.60;18.50;;;10.90;9.80;;;;;;4996962;28;20283;-53
2022/05/29 04:22:23;;;;;;;153.17;32.90;;;10.80;1.00;;;;;;4998178;28;20218;-53
2022/05/29 04:24:49;;;;;;;80.37;17.60;;;;;;;;;;5001765;28;20263;-53
2022/05/29 04:27:16;;;;;;;168.00;35.03;;;11.10;1.00;;;;;;5005703;28;20687;-53
2022/05/29 04:29:42;;;;;;;125.03;27.07;;;11.00;1.00;;;;;;4997345;28;20275;-53
2022/05/29 04:35:00;;;;;;;189.90;38.13;;;;;;;;;;4984400;28;20273;-54
2022/05/29 04:37:27;;;;;;;58.27;13.17;;;11.20;1.00;;;;;;5001551;28;20228;-53
2022/05/29 04:39:53;;;;;;;130.87;27.43;;;;;;;;;;5000423;28;22573;-53
2022/05/29 04:42:19;;;;;;;88.83;19.03;;;;;;;;;;4995877;28;20247;-53
2022/05/29 04:44:45;;;;;;;68.13;15.30;;;11.10;1.00;;;;;;4996604;28;20181;-53
2022/05/29 04:47:11;;;;;;;108.73;23.70;;;11.10;1.00;;;;;;4994414;28;20201;-53
2022/05/29 04:49:37;;;;;;;67.33;15.57;;;11.30;1.00;;;;;;4997174;28;20208;-53
2022/05/29 04:52:07;;;;;;;183.33;38.10;;;11.40;1.00;;;;;;4997787;28;20236;-53
2022/05/29 04:54:34;;;;;;;86.67;19.27;;;11.50;1.00;;;;;;5004548;28;20603;-53
2022/05/29 04:57:01;;;;;;;81.57;17.57;;;;;;;;;;5003181;28;20216;-53
2022/05/29 04:59:26;;;;;;;92.90;19.77;;;;;;;;;;5005253;28;20561;-53
2022/05/29 05:01:55;;;;;;;170.33;36.60;;;;;;;;;;5000885;28;20220;-53
2022/05/29 05:04:21;;;;;;;129.20;27.27;;;11.80;1.00;;;;;;4993475;28;21249;-53
2022/05/29 05:06:47;;;;;;;101.33;22.13;;;;;;;;;;5007739;28;20215;-53
2022/05/29 05:09:13;;;;;;;99.70;22.50;;;11.70;1.00;;;;;;5000187;28;20217;-53
2022/05/29 05:11:39;;;;;;;109.33;24.17;;;;;;;;;;4995560;28;20216;-53
2022/05/29 05:14:05;;;;;;;157.67;33.97;;;;;;;;;;4993020;28;20242;-53
2022/05/29 05:16:30;;;;;;;74.27;17.07;;;12.00;1.00;;;;;;5005177;28;20319;-53
2022/05/29 05:18:56;;;;;;;171.70;35.43;;;11.80;1.00;;;;;;4995831;28;20220;-53
2022/05/29 05:21:21;;;;;;;83.13;18.77;;;11.90;1.00;;;;;;4999121;28;20612;-53
2022/05/29 05:23:47;;;;;;;102.97;21.50;;;;;;;;;;5004395;28;20646;-53
2022/05/29 05:26:15;;;;;;;76.53;17.50;;;;;;;;;;5002939;28;20192;-54
2022/05/29 05:28:41;;;;;;;94.03;21.00;;;12.30;1.00;;;;;;4998890;28;20224;-53
2022/05/29 05:31:07;;;;;;;174.23;36.97;;;11.90;1.00;;;;;;4989620;28;20270;-53
2022/05/29 05:33:32;;;;;;;109.37;23.80;;;12.20;1.00;;;;;;4993615;28;20216;-53
2022/05/29 05:35:58;;;;;;;72.37;15.27;;;;;;;;;;5000562;28;20837;-53
2022/05/29 05:38:24;;;;;;;63.30;14.40;;;;;;;;;;5011991;28;20228;-53
2022/05/29 05:40:50;;;;;;;112.90;24.47;;;;;;;;;;5007535;28;20217;-53
2022/05/29 05:43:19;;;;;;;148.47;31.53;;;;;;;;;;4995189;28;20227;-53
2022/05/29 05:45:45;;;;;;;47.90;11.80;;;;;;;;;;4998005;28;20307;-52
2022/05/29 05:48:10;;;;;;;136.73;29.53;;;;;;;;;;5004882;28;20311;-53
2022/05/29 05:50:38;;;;;;;62.20;14.87;;;12.30;1.00;;;;;;5003651;28;20753;-53
2022/05/29 05:53:03;;;;;;;113.33;24.73;;;;;;;;;;5003314;28;20213;-53
2022/05/29 05:55:29;;;;;;;134.40;28.67;;;11.20;1.00;;;;;;5004539;28;20216;-53
2022/05/29 05:57:55;;;;;;;55.50;12.37;;;12.30;1.00;;;;;;5007212;28;20216;-53
2022/05/29 06:00:21;;;;;;;61.00;13.87;;;12.00;1.00;;;;;;5005729;28;20472;-52
2022/05/29 06:02:47;;;;;;;131.77;29.07;;;;;;;;;;4993344;28;20705;-53
2022/05/29 06:05:15;;;;;;;63.93;14.80;;;12.10;1.00;;;;;;5001253;28;20188;-53
2022/05/29 06:07:40;;;;;;;46.03;11.67;;;12.40;1.00;;;;;;5007427;28;20219;-53
2022/05/29 06:10:08;;;;;;;92.93;21.50;;;12.20;1.00;;;;;;5010415;28;20685;-52
2022/05/29 06:12:34;;;;;;;45.70;11.20;;;;;;;;;;5012061;28;20228;-53
2022/05/29 06:15:00;;;;;;;123.77;26.47;;;12.60;1.00;;;;;;5003392;28;20662;-53
2022/05/29 06:17:26;;;;;;;148.27;32.27;;;12.60;1.00;;;;;;5007913;28;20216;-53
2022/05/29 06:19:52;;;;;;;110.87;24.87;;;;;;;;;;5004286;28;20601;-53
2022/05/29 06:22:18;;;;;;;97.43;21.80;;;;;;;;;;5012086;28;20203;-53
2022/05/29 06:24:44;;;;;;;98.70;22.00;;;;;;;;;;5007784;28;20215;-53
2022/05/29 06:27:10;;;;;;;116.00;25.67;;;;;;;;;;5001707;28;20231;-53
2022/05/29 06:29:36;;;;;;;65.13;15.30;;;13.20;1.00;;;;;;5009325;28;20188;-52
2022/05/29 06:32:04;;;;;;;134.13;29.50;;;12.80;1.00;;;;;;5008033;28;20201;-52
2022/05/29 06:34:33;;;;;;;68.90;16.57;;;13.20;99.90;;;;;;5005474;28;20216;-53
2022/05/29 06:37:02;;;;;;;79.30;18.50;;;13.50;1.00;;;;;;5013471;28;20322;-53
2022/05/29 06:39:28;;;;;;;54.53;13.17;;;13.30;99.90;;;;;;5010627;28;20220;-53
2022/05/29 06:41:53;;;;;;;159.13;33.97;;;;;;;;;;5009416;28;20696;-53
2022/05/29 06:44:19;;;;;;;35.97;9.60;;;;;;;;;;5002396;28;20279;-52
2022/05/29 06:46:45;;;;;;;67.87;16.57;;;;;;;;;;5012012;28;20251;-53
2022/05/29 06:49:12;;;;;;;99.38;22.45;;;13.70;1.00;;;;;;4998253;28;20216;-53
2022/05/29 06:51:38;;;;;;;112.82;24.92;;;;;;;;;;5009403;28;20227;-53
2022/05/29 06:54:05;;;;;;;92.03;21.13;;;;;;;;;;4995593;28;20232;-53
2022/05/29 06:56:31;;;;;;;91.05;21.33;;;13.90;1.00;;;;;;5000726;28;20598;-52
2022/05/29 06:58:58;;;;;;;46.35;11.23;;;14.10;1.00;;;;;;5011367;28;20295;-52
2022/05/29 07:07:00;;;;;;;114.03;25.58;;;;;;;;;;5009491;28;20227;-53
2022/05/29 07:09:32;;;;;;;74.45;18.35;;;14.20;1.00;;;;;;5011458;28;20215;-53
2022/05/29 07:12:07;;;;;;;179.00;41.88;;;14.20;1.00;;;;;;5000704;28;20505;-53
2022/05/29 07:14:37;;;;;;;66.60;16.65;;;14.40;99.90;;;;;;5006257;28;20180;-53
2022/05/29 07:17:03;;;;;;;102.22;24.23;;;14.00;99.90;;;;;;5005803;28;20228;-53
2022/05/29 07:19:29;;;;;;;76.57;18.83;;;;;;;;;;5005432;28;20224;-52
2022/05/29 07:21:58;;;;;;;181.80;43.05;;;14.20;98.50;;;;;;5000145;28;20281;-53
2022/05/29 07:24:25;;;;;;;58.90;14.67;;;14.10;1.00;;;;;;5011426;28;20221;-53
2022/05/29 07:26:51;;;;;;;139.93;32.70;;;14.10;1.00;;;;;;4991790;28;20617;-52
2022/05/29 07:29:17;;;;;;;117.10;28.30;;;;;;;;;;5004406;28;20260;-52
2022/05/29 07:31:47;;;;;;;74.72;18.38;;;14.20;1.00;;;;;;5000114;28;20216;-52
2022/05/29 07:34:13;;;;;;;106.10;25.92;;;;;;;;;;5003286;28;20220;-53
2022/05/29 07:36:39;;;;;;;93.27;22.30;;;;;;;;;;4998127;28;20678;-53
2022/05/29 07:39:05;;;;;;;115.72;28.48;;;14.30;99.90;;;;;;4998852;28;20846;-52
2022/05/29 07:44:16;;;;;;;126.97;30.17;;;;;;;;;;5000128;28;20418;-51
2022/05/29 07:46:42;;;;;;;86.70;21.45;;;;;;;;;;5002464;28;20208;-51
2022/05/29 07:49:08;;;;;;;130.77;30.30;;;;;;;;;;4999356;28;20220;-51
2022/05/29 07:51:34;;;;;;;124.25;30.35;;;;;;;;;;5002592;28;20229;-51
2022/05/29 07:54:01;;;;;;;132.60;30.38;;;;;;;;;;4990326;28;20217;-51
2022/05/29 07:56:27;;;;;;;118.67;28.40;;;14.80;97.10;;;;;;5001604;28;20523;-50
2022/05/29 07:58:52;;;;;;;130.52;30.85;;;14.80;1.00;;;;;;5004307;28;20586;-50
2022/05/29 08:01:19;;;;;;;69.10;17.52;;;;;;;;;;5009046;28;20219;-51
2022/05/29 08:03:45;;;;;;;144.43;35.20;;;14.70;1.00;;;;;;5001627;28;20227;-51
2022/05/29 08:06:11;;;;;;;119.63;28.67;;;;;;;;;;4997733;28;20295;-53
2022/05/29 08:08:37;;;;;;;100.07;26.08;;;15.10;1.00;;;;;;5001242;28;20212;-52
2022/05/29 08:11:03;;;;;;;77.03;19.48;;;;;;;;;;4998914;28;20200;-50
2022/05/29 08:13:30;;;;;;;140.87;37.00;;;14.80;1.00;;;;;;5008935;28;20315;-52
2022/05/29 08:15:56;;;;;;;183.47;43.83;;;;;;;;;;4997394;28;20373;-52
2022/05/29 08:18:22;;;;;;;148.40;35.70;;;15.00;99.90;;;;;;4998969;28;20979;-52
2022/05/29 08:20:48;;;;;;;124.82;29.67;;;;;;;;;;5002095;28;20784;-52
2022/05/29 08:23:14;;;;;;;114.78;28.20;;;;;;;;;;5000846;28;20199;-52
2022/05/29 08:31:09;;;;;;;101.63;24.52;;;16.00;1.00;;;;;;5006064;28;20232;-52
2022/05/29 08:33:36;;;;;;;131.35;31.27;;;15.50;1.00;;;;;;5000351;28;20204;-52
2022/05/29 08:36:06;;;;;;;189.98;42.00;;;15.50;49.60;;;;;;5000872;28;20251;-52
2022/05/29 08:38:34;;;;;;;110.35;24.73;;;15.40;1.00;;;;;;4995381;28;20719;-52
2022/05/29 08:41:03;;;;;;;94.25;20.65;;;15.40;1.00;;;;;;5003757;28;20259;-52
2022/05/29 08:43:43;;;;;;;133.48;29.15;;;15.50;1.00;;;;;;4995674;28;20208;-52
2022/05/29 08:46:17;;;;;;;131.50;31.25;;;15.70;99.90;;;;;;4999713;28;20227;-52
2022/05/29 08:48:43;;;;;;;130.40;30.58;;;;;;;;;;5002301;28;20212;-52
2022/05/29 08:51:31;;;;;;;96.82;24.50;;;15.40;1.00;;;;;;5000149;28;20724;-53
2022/05/29 08:54:11;;;;;;;125.60;29.35;;;15.80;1.00;;;;;;5003999;28;20213;-53
2022/05/29 08:56:59;;;;;;;234.68;57.75;;;15.90;1.00;;;;;;4993353;28;20224;-53
2022/05/29 08:59:48;;;;;;;73.07;20.15;;;15.80;1.00;;;;;;4998320;28;20209;-53
2022/05/29 09:02:35;;;;;;;124.68;31.65;;;16.00;1.00;;;;;;5004164;28;21959;-53
2022/05/29 09:05:47;;;;;;;64.05;16.80;;;15.90;1.00;;;;;;4999448;28;20224;-53
2022/05/29 09:08:28;;;;;;;114.32;28.95;;;15.80;1.00;;;;;;4947056;28;20289;-53
2022/05/29 09:10:59;;;;;;;137.00;34.92;;;15.80;1.00;;;;;;4947695;28;20226;-53
2022/05/29 09:13:35;;;;;;;193.65;48.03;;;15.90;1.00;;;;;;4972946;28;20325;-53
2022/05/29 09:16:18;;;;;;;113.00;27.48;;;16.30;6.10;;;;;;5000850;28;20216;-52
2022/05/29 09:19:18;;;;;;;63.38;18.30;;;16.10;1.00;;;;;;4995939;28;20689;-52
2022/05/29 09:22:00;;;;;;;47.45;12.77;;;16.00;1.00;;;;;;5003633;28;20220;-52
2022/05/29 09:24:41;;;;;;;186.57;41.78;;;16.00;12.70;;;;;;4993779;28;20256;-52
2022/05/29 09:27:10;;;;;;;139.57;34.63;;;16.10;99.90;;;;;;4996499;28;20221;-52
2022/05/29 09:29:36;;;;;;;193.45;44.13;;;;;;;;;;4997002;28;20201;-52
2022/05/29 09:32:04;;;;;;;209.32;42.97;;;16.40;29.20;;;;;;4996161;28;20254;-52
2022/05/29 09:34:30;;;;;;;117.65;27.55;;;16.70;1.00;;;;;;5001113;28;20216;-52
2022/05/29 09:36:56;;;;;;;212.18;47.17;;;;;;;;;;4987509;28;20216;-52
2022/05/29 09:39:36;;;;;;;236.98;49.97;;;16.50;25.10;;;;;;4996667;28;20260;-52
2022/05/29 09:42:06;;;;;;;334.02;71.97;;;16.70;1.00;;;;;;4981706;28;20225;-52
2022/05/29 09:44:32;;;;;;;171.77;43.28;;;;;;;;;;4989732;28;20208;-52
2022/05/29 09:49:40;;;;;;;112.03;28.73;;;;;;;;;;4993102;28;20590;-52
2022/05/29 09:50:11;;;;;;;208.45;50.45;;;17.00;1.00;;;;;;4987669;28;20601;-52
2022/05/29 09:52:41;;;;;;;93.18;24.17;;;16.40;1.00;;;;;;5018353;28;20220;-52
2022/05/29 09:55:30;;;;;;;135.25;32.83;;;16.50;1.00;;;;;;5007872;28;20720;-52
2022/05/29 09:57:59;;;;;;;88.78;22.10;;;16.60;1.00;;;;;;5002716;28;20235;-52
2022/05/29 10:00:30;;;;;;;91.68;24.50;;;16.70;1.00;;;;;;5008000;28;20235;-52
2022/05/29 10:02:56;;;;;;;66.20;17.98;;;16.50;1.00;;;;;;5006200;28;20811;-52
2022/05/29 10:05:42;;;;;;;74.25;20.70;;;16.40;1.00;;;;;;5006036;28;20203;-52
2022/05/29 10:08:31;;;;;;;40.17;12.48;;;16.30;1.00;;;;;;5007795;28;20234;-52
2022/05/29 10:11:21;;;;;;;120.05;29.85;;;16.30;1.00;;;;;;5003552;28;20258;-52
2022/05/29 10:13:47;;;;;;;65.32;17.90;;;16.40;1.00;;;;;;5008947;28;20619;-52
2022/05/29 10:16:38;;;;;;;149.15;37.90;;;16.50;1.00;;;;;;5000106;28;20480;-52
2022/05/29 10:19:09;;;;;;;106.18;26.55;;;16.60;1.00;;;;;;5003949;28;20216;-52
2022/05/29 10:21:43;;;;;;;121.20;31.17;;;16.70;1.00;;;;;;4998980;28;20217;-52
2022/05/29 10:24:23;;;;;;;79.53;20.67;;;18.20;1.00;;;;;;5004311;28;20207;-52
2022/05/29 10:26:55;;;;;;;91.65;23.30;;;16.70;1.00;;;;;;5005255;28;20254;-52
2022/05/29 10:29:33;;;;;;;134.15;34.47;;;16.70;99.90;;;;;;5006992;28;20260;-52
2022/05/29 10:32:03;;;;;;;114.03;28.77;;;17.00;1.00;;;;;;5009835;28;20232;-51
2022/05/29 10:34:36;;;;;;;91.70;25.35;;;16.80;1.00;;;;;;5001237;28;20209;-52
2022/05/29 10:37:25;;;;;;;72.40;20.35;;;17.20;99.90;;;;;;5000955;28;20801;-52
2022/05/29 10:39:51;;;;;;;96.20;25.52;;;17.00;99.90;;;;;;5000209;28;21083;-53
2022/05/29 10:42:43;;;;;;;93.28;25.50;;;17.00;99.90;;;;;;5005936;28;20722;-53
2022/05/29 10:45:17;;;;;;;69.32;20.45;;;17.20;99.90;;;;;;5004321;28;20212;-52
2022/05/29 10:48:07;;;;;;;51.30;16.27;;;17.10;99.90;;;;;;5014808;28;20205;-52
2022/05/29 10:50:52;;;;;;;89.57;25.52;;;17.00;99.90;;;;;;4995976;28;20188;-52
2022/05/29 10:53:30;;;;;;;225.18;55.22;;;17.60;99.90;;;;;;4986609;28;20219;-52
2022/05/29 10:56:17;;;;;;;154.15;32.85;;;17.70;99.90;;;;;;4990506;28;20783;-52
2022/05/29 10:59:03;;;;;;;179.57;43.65;;;17.90;99.90;;;;;;4995168;28;20744;-53
2022/05/29 11:04:50;;;;;;;150.73;33.28;;;18.00;99.90;;;;;;4994563;28;20243;-52
2022/05/29 11:07:53;;;;;;;140.32;37.20;;;17.80;90.80;;;;;;4997236;28;21816;-53
2022/05/29 11:10:30;;;;;;;201.07;43.83;;;17.80;90.20;;;;;;4995649;28;20954;-52
2022/05/29 11:13:15;;;;;;;221.95;48.22;;;17.70;91.10;;;;;;4983023;28;20584;-53
2022/05/29 11:16:14;;;;;;;149.48;33.33;;;17.40;99.90;;;;;;5002543;28;20307;-52
2022/05/29 11:18:54;;;;;;;119.57;34.03;;;17.40;99.90;;;;;;4994331;28;20692;-52
2022/05/29 11:21:45;;;;;;;103.60;24.30;;;16.90;99.90;;;;;;5002437;28;20751;-53
2022/05/29 11:24:30;;;;;;;151.13;33.35;;;16.50;99.90;;;;;;5003140;28;20224;-53
2022/05/29 11:27:30;;;;;;;155.35;35.05;;;16.50;1.00;;;;;;4997984;28;20585;-52
2022/05/29 11:30:21;;;;;;;146.52;30.17;;;16.00;1.00;;;;;;5004156;28;20303;-53
2022/05/29 11:32:56;;;;;;;51.88;13.07;;;15.20;1.00;;;;;;4999262;28;20308;-54
2022/05/29 11:35:27;;;;;;;127.22;27.42;;;16.10;1.00;;;;;;4996822;28;20195;-54
2022/05/29 11:38:31;;;;;;;127.55;31.40;;;16.30;1.00;;;;;;5000232;28;20217;-53
2022/05/29 11:41:12;;;;;;;135.18;28.15;;;16.50;1.00;;;;;;4987586;28;20224;-53
2022/05/29 11:43:56;;;;;;;151.10;36.00;;;16.70;99.90;;;;;;4996339;28;20219;-54
2022/05/29 11:52:33;;;;;;;116.90;30.42;;;;;;;;;;4992347;28;20624;-53
2022/05/29 11:55:16;;;;;;;122.15;32.42;;;17.50;99.90;;;;;;5001525;28;20204;-53
2022/05/29 11:57:50;;;;;;;135.57;36.72;;;17.20;82.90;;;;;;5000631;28;21056;-53
2022/05/29 12:00:35;;;;;;;72.00;20.77;;;16.80;99.90;;;;;;5004452;28;20226;-53
2022/05/29 12:03:31;;;;;;;121.15;33.78;;;16.80;99.90;;;;;;4998757;28;20209;-53
2022/05/29 12:06:15;;;;;;;119.80;28.67;;;16.90;99.90;;;;;;5002043;28;20213;-53
2022/05/29 12:08:52;;;;;;;136.27;36.45;;;17.50;1.00;;;;;;4999475;28;20234;-53
2022/05/29 12:11:18;;;;;;;111.32;27.58;;;17.10;1.00;;;;;;5003976;28;20192;-53
2022/05/29 12:14:03;;;;;;;73.85;21.23;;;17.20;99.90;;;;;;5003934;28;20709;-53
2022/05/29 12:16:32;;;;;;;100.53;25.38;;;17.50;99.90;;;;;;4988486;28;20211;-53
2022/05/29 12:19:02;;;;;;;176.30;46.75;;;17.90;1.00;;;;;;4997674;28;20272;-54
2022/05/29 12:21:58;;;;;;;185.35;49.70;;;17.90;1.00;;;;;;4995846;28;20230;-54
2022/05/29 12:24:28;;;;;;;144.43;43.60;;;17.30;99.90;;;;;;4991209;28;20731;-53
2022/05/29 12:27:15;;;;;;;84.95;25.58;;;17.40;93.00;;;;;;5005053;28;20220;-53
2022/05/29 12:29:48;;;;;;;154.80;43.60;;;17.90;94.90;;;;;;4991887;28;20318;-53
2022/05/29 12:32:31;;;;;;;125.97;35.10;;;18.00;99.90;;;;;;4998882;28;20235;-53
2022/05/29 12:35:07;;;;;;;179.35;47.67;;;18.30;90.70;;;;;;4987451;28;20224;-53
2022/05/29 12:38:06;;;;;;;117.65;34.83;;;18.40;82.50;;;;;;5000814;28;20220;-53
2022/05/29 12:40:33;;;;;;;77.93;29.45;;;;;;;;;;5009055;28;20213;-53
2022/05/29 12:42:59;;;;;;;169.43;55.45;;;;;;;;;;4997198;28;20231;-53
2022/05/29 12:45:39;;;;;;;128.23;53.33;;;19.00;1.00;;;;;;4996118;28;20709;-54
2022/05/29 12:48:29;;;;;;;165.07;73.60;;;19.30;1.00;;;;;;4995405;28;20220;-53
2022/05/29 12:51:13;;;;;;;200.77;100.53;;;19.40;99.90;;;;;;4996805;28;20213;-53
2022/05/29 12:54:26;;;;;;;214.90;113.25;;;19.60;1.00;;;;;;4997820;28;20189;-53
2022/05/29 12:57:32;;;;;;;164.30;110.28;;;19.60;18.90;;;;;;4985345;28;20224;-53
2022/05/29 13:00:27;;;;;;;191.05;112.10;;;19.80;1.00;;;;;;4975797;28;20212;-53
2022/05/29 13:03:17;;;;;;;190.57;124.30;;;20.20;1.00;;;;;;5005214;28;20216;-53
2022/05/29 13:06:12;;;;;;;201.80;139.38;;;20.50;1.00;;;;;;5007733;28;20185;-53
2022/05/29 13:09:13;;;;;;;310.60;183.50;;;20.40;1.00;;;;;;5005452;28;20200;-53
2022/05/29 13:11:58;;;;;;;282.75;171.48;;;20.10;1.00;;;;;;4998888;28;20960;-53
2022/05/29 13:14:25;;;;;;;281.10;180.60;;;20.10;1.00;;;;;;4992093;28;20311;-53
2022/05/29 13:17:11;;;;;;;280.40;181.75;;;20.20;83.30;;;;;;4992119;28;20593;-53
2022/05/29 13:19:53;;;;;;;315.58;187.32;;;20.10;1.00;;;;;;4993275;28;20216;-52
2022/05/29 13:22:19;;;;;;;204.68;142.80;;;;;;;;;;4998008;28;20577;-55
2022/05/29 13:24:47;;;;;;;231.95;152.32;;;19.70;1.00;;;;;;5006020;28;20224;-52
2022/05/29 13:27:14;;;;;;;217.45;143.90;;;;;;;;;;5005388;28;20302;-52
2022/05/29 13:29:48;;;;;;;277.80;161.68;;;19.10;1.00;;;;;;4992673;28;20665;-52
2022/05/29 13:32:14;;;;;;;220.80;148.70;;;;;;;;;;4994485;28;20728;-52
2022/05/29 13:34:41;;;;;;;241.45;153.85;;;19.20;1.00;;;;;;4996074;28;20266;-53
2022/05/29 13:37:20;;;;;;;228.70;155.88;;;19.30;1.00;;;;;;5000221;28;20212;-52
2022/05/29 13:40:06;;;;;;;256.10;156.35;;;19.30;94.60;;;;;;4995601;28;20216;-52
2022/05/29 13:43:14;;;;;;;214.98;144.57;;;19.30;1.00;;;;;;4992486;28;20247;-52
2022/05/29 13:45:43;;;;;;;246.88;149.27;;;19.30;1.00;;;;;;4973554;28;20757;-52
2022/05/29 13:48:27;;;;;;;240.15;157.13;;;19.30;1.00;;;;;;5007153;28;20220;-52
2022/05/29 13:51:11;;;;;;;259.08;157.20;;;19.40;1.00;;;;;;5001610;28;20988;-52
2022/05/29 13:53:55;;;;;;;194.07;134.95;;;19.60;1.00;;;;;;5000804;28;20282;-51